sensor_id;sensor_type;location;lat;lon;timestamp;temperature;humidity
20815;DHT22;10568;48.176;16.316;2024-03-22T00:01:55;11.00;99.90
20815;DHT22;10568;48.176;16.316;2024-03-22T00:04:21;11.00;99.90
20815;DHT22;10568;48.176;16.316;2024-03-22T00:06:49;11.00;99.90
20815;DHT22;10568;48.176;16.316;2024-03-22T00:09:16;11.00;99.90
20815;DHT22;10568;48.176;16.316;2024-03-22T00:11:43;11.00;99.90
20815;DHT22;10568;48.176;16.316;2024-03-22T00:14:10;11.10;99.90
20815;DHT22;10568;48.176;16.316;2024-03-22T00:16:37;11.10;99.90
20815;DHT22;10568;48.176;16.316;2024-03-22T00:19:03;11.10;99.90
20815;DHT22;10568;48.176;16.316;2024-03-22T00:21:29;11.20;99.90
20815;DHT22;10568;48.176;16.316;2024-03-22T00:24:08;11.20;99.90
20815;DHT22;10568;48.176;16.316;2024-03-22T00:26:34;10.40;99.90
20815;DHT22;10568;48.176;16.316;2024-03-22T00:29:00;11.30;99.90
20815;DHT22;10568;48.176;16.316;2024-03-22T00:31:26;11.30;99.90
20815;DHT22;10568;48.176;16.316;2024-03-22T00:33:52;11.40;99.90
20815;DHT22;10568;48.176;16.316;2024-03-22T00:36:18;11.40;99.90
20815;DHT22;10568;48.176;16.316;2024-03-22T00:38:44;11.40;99.90
20815;DHT22;10568;48.176;16.316;2024-03-22T00:41:10;11.50;99.90
20815;DHT22;10568;48.176;16.316;2024-03-22T00:43:36;11.50;99.90
20815;DHT22;10568;48.176;16.316;2024-03-22T00:46:03;11.50;99.90
20815;DHT22;10568;48.176;16.316;2024-03-22T00:48:29;11.50;99.90
20815;DHT22;10568;48.176;16.316;2024-03-22T00:50:56;11.50;99.90
20815;DHT22;10568;48.176;16.316;2024-03-22T00:53:22;11.60;99.90
20815;DHT22;10568;48.176;16.316;2024-03-22T00:55:48;11.60;99.90
20815;DHT22;10568;48.176;16.316;2024-03-22T00:58:20;11.50;99.90
20815;DHT22;10568;48.176;16.316;2024-03-22T01:00:46;11.60;99.90
20815;DHT22;10568;48.176;16.316;2024-03-22T01:03:13;11.60;99.90
20815;DHT22;10568;48.176;16.316;2024-03-22T01:05:39;11.60;99.90
20815;DHT22;10568;48.176;16.316;2024-03-22T01:08:06;11.60;99.90
20815;DHT22;10568;48.176;16.316;2024-03-22T01:10:33;11.60;99.90
20815;DHT22;10568;48.176;16.316;2024-03-22T01:13:00;11.60;99.90
20815;DHT22;10568;48.176;16.316;2024-03-22T01:15:26;11.60;99.90
20815;DHT22;10568;48.176;16.316;2024-03-22T01:17:52;11.60;99.90
20815;DHT22;10568;48.176;16.316;2024-03-22T01:20:19;11.60;99.90
20815;DHT22;10568;48.176;16.316;2024-03-22T01:22:45;11.60;99.90
20815;DHT22;10568;48.176;16.316;2024-03-22T01:25:11;11.60;99.90
20815;DHT22;10568;48.176;16.316;2024-03-22T01:27:37;11.60;99.90
20815;DHT22;10568;48.176;16.316;2024-03-22T01:30:04;11.60;99.90
20815;DHT22;10568;48.176;16.316;2024-03-22T01:32:30;11.60;99.90
20815;DHT22;10568;48.176;16.316;2024-03-22T01:34:57;11.70;99.90
20815;DHT22;10568;48.176;16.316;2024-03-22T01:37:23;11.60;99.90
20815;DHT22;10568;48.176;16.316;2024-03-22T01:39:49;11.70;99.90
20815;DHT22;10568;48.176;16.316;2024-03-22T01:42:15;11.70;99.90
20815;DHT22;10568;48.176;16.316;2024-03-22T01:44:41;11.70;99.90
20815;DHT22;10568;48.176;16.316;2024-03-22T01:47:08;11.70;99.90
20815;DHT22;10568;48.176;16.316;2024-03-22T01:49:34;11.70;99.90
20815;DHT22;10568;48.176;16.316;2024-03-22T01:52:01;11.70;99.90
20815;DHT22;10568;48.176;16.316;2024-03-22T01:54:27;11.70;99.90
20815;DHT22;10568;48.176;16.316;2024-03-22T01:56:53;11.60;99.90
20815;DHT22;10568;48.176;16.316;2024-03-22T01:59:20;11.70;99.90
20815;DHT22;10568;48.176;16.316;2024-03-22T02:01:47;11.70;99.90
20815;DHT22;10568;48.176;16.316;2024-03-22T02:04:15;11.60;99.90
20815;DHT22;10568;48.176;16.316;2024-03-22T02:06:41;11.60;99.90
20815;DHT22;10568;48.176;16.316;2024-03-22T02:09:07;11.60;99.90
20815;DHT22;10568;48.176;16.316;2024-03-22T02:11:36;11.60;99.90
20815;DHT22;10568;48.176;16.316;2024-03-22T02:14:05;11.60;99.90
20815;DHT22;10568;48.176;16.316;2024-03-22T02:16:32;11.60;99.90
20815;DHT22;10568;48.176;16.316;2024-03-22T02:18:58;11.60;99.90
20815;DHT22;10568;48.176;16.316;2024-03-22T02:21:48;11.60;99.90
20815;DHT22;10568;48.176;16.316;2024-03-22T02:24:14;11.60;99.90
20815;DHT22;10568;48.176;16.316;2024-03-22T02:26:41;11.60;99.90
20815;DHT22;10568;48.176;16.316;2024-03-22T02:29:07;11.60;99.90
20815;DHT22;10568;48.176;16.316;2024-03-22T02:31:33;11.50;99.90
20815;DHT22;10568;48.176;16.316;2024-03-22T02:33:59;11.60;99.90
20815;DHT22;10568;48.176;16.316;2024-03-22T02:36:27;11.80;99.90
20815;DHT22;10568;48.176;16.316;2024-03-22T02:38:53;11.50;99.90
20815;DHT22;10568;48.176;16.316;2024-03-22T02:41:21;11.50;99.90
20815;DHT22;10568;48.176;16.316;2024-03-22T02:43:47;11.50;99.90
20815;DHT22;10568;48.176;16.316;2024-03-22T02:46:13;11.50;99.90
20815;DHT22;10568;48.176;16.316;2024-03-22T02:48:39;11.50;99.90
20815;DHT22;10568;48.176;16.316;2024-03-22T02:51:06;11.50;99.90
20815;DHT22;10568;48.176;16.316;2024-03-22T02:53:32;11.40;99.90
20815;DHT22;10568;48.176;16.316;2024-03-22T02:56:00;11.40;99.90
20815;DHT22;10568;48.176;16.316;2024-03-22T02:58:26;11.40;99.90
20815;DHT22;10568;48.176;16.316;2024-03-22T03:00:53;11.40;99.90
20815;DHT22;10568;48.176;16.316;2024-03-22T03:03:19;11.40;99.90
20815;DHT22;10568;48.176;16.316;2024-03-22T03:05:45;11.30;99.90
20815;DHT22;10568;48.176;16.316;2024-03-22T03:08:11;11.30;99.90
20815;DHT22;10568;48.176;16.316;2024-03-22T03:10:37;11.30;99.90
20815;DHT22;10568;48.176;16.316;2024-03-22T03:13:03;11.20;99.90
20815;DHT22;10568;48.176;16.316;2024-03-22T03:15:29;11.20;99.90
20815;DHT22;10568;48.176;16.316;2024-03-22T03:17:55;11.20;99.90
20815;DHT22;10568;48.176;16.316;2024-03-22T03:20:21;11.20;99.90
20815;DHT22;10568;48.176;16.316;2024-03-22T03:22:47;11.10;99.90
20815;DHT22;10568;48.176;16.316;2024-03-22T03:25:13;11.10;99.90
20815;DHT22;10568;48.176;16.316;2024-03-22T03:27:39;11.00;99.90
20815;DHT22;10568;48.176;16.316;2024-03-22T03:30:06;11.00;99.90
20815;DHT22;10568;48.176;16.316;2024-03-22T03:32:32;11.00;99.90
20815;DHT22;10568;48.176;16.316;2024-03-22T03:34:58;10.90;99.90
20815;DHT22;10568;48.176;16.316;2024-03-22T03:37:24;10.90;99.90
20815;DHT22;10568;48.176;16.316;2024-03-22T03:39:50;10.90;99.90
20815;DHT22;10568;48.176;16.316;2024-03-22T03:42:16;10.90;99.90
20815;DHT22;10568;48.176;16.316;2024-03-22T03:44:43;11.00;99.90
20815;DHT22;10568;48.176;16.316;2024-03-22T03:47:09;10.90;99.90
20815;DHT22;10568;48.176;16.316;2024-03-22T03:49:35;10.90;99.90
20815;DHT22;10568;48.176;16.316;2024-03-22T03:52:01;10.90;99.90
20815;DHT22;10568;48.176;16.316;2024-03-22T03:54:27;11.00;99.90
20815;DHT22;10568;48.176;16.316;2024-03-22T03:56:53;11.10;99.90
20815;DHT22;10568;48.176;16.316;2024-03-22T03:59:19;11.10;99.90
20815;DHT22;10568;48.176;16.316;2024-03-22T04:01:46;11.10;99.90
20815;DHT22;10568;48.176;16.316;2024-03-22T04:04:14;11.10;99.90
20815;DHT22;10568;48.176;16.316;2024-03-22T04:06:40;11.10;99.90
20815;DHT22;10568;48.176;16.316;2024-03-22T04:09:06;11.20;99.90
20815;DHT22;10568;48.176;16.316;2024-03-22T04:11:32;11.20;99.90
20815;DHT22;10568;48.176;16.316;2024-03-22T04:13:58;11.20;99.90
20815;DHT22;10568;48.176;16.316;2024-03-22T04:16:24;11.20;99.90
20815;DHT22;10568;48.176;16.316;2024-03-22T04:18:50;11.20;99.90
20815;DHT22;10568;48.176;16.316;2024-03-22T04:21:17;11.20;99.90
20815;DHT22;10568;48.176;16.316;2024-03-22T04:23:43;11.20;99.90
20815;DHT22;10568;48.176;16.316;2024-03-22T04:26:10;11.20;99.90
20815;DHT22;10568;48.176;16.316;2024-03-22T04:28:36;11.20;99.90
20815;DHT22;10568;48.176;16.316;2024-03-22T04:31:04;11.20;99.90
20815;DHT22;10568;48.176;16.316;2024-03-22T04:33:32;11.20;99.90
20815;DHT22;10568;48.176;16.316;2024-03-22T04:35:59;11.20;99.90
20815;DHT22;10568;48.176;16.316;2024-03-22T04:38:27;11.10;99.90
20815;DHT22;10568;48.176;16.316;2024-03-22T04:40:54;11.20;99.90
20815;DHT22;10568;48.176;16.316;2024-03-22T04:43:21;11.20;99.90
20815;DHT22;10568;48.176;16.316;2024-03-22T04:45:48;11.10;99.90
20815;DHT22;10568;48.176;16.316;2024-03-22T04:48:16;11.20;99.90
20815;DHT22;10568;48.176;16.316;2024-03-22T04:50:42;11.10;99.90
20815;DHT22;10568;48.176;16.316;2024-03-22T04:53:08;11.10;99.90
20815;DHT22;10568;48.176;16.316;2024-03-22T04:55:34;11.20;99.90
20815;DHT22;10568;48.176;16.316;2024-03-22T04:58:00;11.10;99.90
20815;DHT22;10568;48.176;16.316;2024-03-22T05:00:28;11.10;99.90
20815;DHT22;10568;48.176;16.316;2024-03-22T05:02:54;11.10;99.90
20815;DHT22;10568;48.176;16.316;2024-03-22T05:05:21;11.10;99.90
20815;DHT22;10568;48.176;16.316;2024-03-22T05:07:47;11.10;99.90
20815;DHT22;10568;48.176;16.316;2024-03-22T05:10:13;11.00;99.90
20815;DHT22;10568;48.176;16.316;2024-03-22T05:12:39;11.00;99.90
20815;DHT22;10568;48.176;16.316;2024-03-22T05:15:06;11.00;99.90
20815;DHT22;10568;48.176;16.316;2024-03-22T05:17:32;11.00;99.90
20815;DHT22;10568;48.176;16.316;2024-03-22T05:19:59;10.90;99.90
20815;DHT22;10568;48.176;16.316;2024-03-22T05:22:26;10.90;99.90
20815;DHT22;10568;48.176;16.316;2024-03-22T05:24:52;10.90;99.90
20815;DHT22;10568;48.176;16.316;2024-03-22T05:27:18;10.90;99.90
20815;DHT22;10568;48.176;16.316;2024-03-22T05:29:44;10.90;99.90
20815;DHT22;10568;48.176;16.316;2024-03-22T05:32:10;10.90;99.90
20815;DHT22;10568;48.176;16.316;2024-03-22T05:34:36;10.90;99.90
20815;DHT22;10568;48.176;16.316;2024-03-22T05:37:03;10.90;99.90
20815;DHT22;10568;48.176;16.316;2024-03-22T05:39:29;10.90;99.90
20815;DHT22;10568;48.176;16.316;2024-03-22T05:41:55;10.90;99.90
20815;DHT22;10568;48.176;16.316;2024-03-22T05:44:24;10.90;99.90
20815;DHT22;10568;48.176;16.316;2024-03-22T05:46:50;10.90;99.90
20815;DHT22;10568;48.176;16.316;2024-03-22T05:49:16;10.90;99.90
20815;DHT22;10568;48.176;16.316;2024-03-22T05:51:43;11.00;99.90
20815;DHT22;10568;48.176;16.316;2024-03-22T05:54:09;11.00;99.90
20815;DHT22;10568;48.176;16.316;2024-03-22T05:56:35;11.10;99.90
20815;DHT22;10568;48.176;16.316;2024-03-22T05:59:01;11.10;99.90
20815;DHT22;10568;48.176;16.316;2024-03-22T06:01:27;11.20;99.90
20815;DHT22;10568;48.176;16.316;2024-03-22T06:03:53;11.30;99.90
20815;DHT22;10568;48.176;16.316;2024-03-22T06:06:20;11.30;99.90
20815;DHT22;10568;48.176;16.316;2024-03-22T06:08:51;11.40;99.90
20815;DHT22;10568;48.176;16.316;2024-03-22T06:11:23;11.50;99.90
20815;DHT22;10568;48.176;16.316;2024-03-22T06:13:49;11.50;99.90
20815;DHT22;10568;48.176;16.316;2024-03-22T06:16:15;11.50;99.90
20815;DHT22;10568;48.176;16.316;2024-03-22T06:18:41;11.60;99.90
20815;DHT22;10568;48.176;16.316;2024-03-22T06:21:07;11.70;99.90
20815;DHT22;10568;48.176;16.316;2024-03-22T06:23:33;11.70;99.90
20815;DHT22;10568;48.176;16.316;2024-03-22T06:26:00;11.70;99.90
20815;DHT22;10568;48.176;16.316;2024-03-22T06:28:29;11.70;99.90
20815;DHT22;10568;48.176;16.316;2024-03-22T06:30:55;11.70;99.90
20815;DHT22;10568;48.176;16.316;2024-03-22T06:33:21;11.80;99.90
20815;DHT22;10568;48.176;16.316;2024-03-22T06:35:47;11.90;99.90
20815;DHT22;10568;48.176;16.316;2024-03-22T06:38:13;11.90;99.90
20815;DHT22;10568;48.176;16.316;2024-03-22T06:40:39;12.00;99.90
20815;DHT22;10568;48.176;16.316;2024-03-22T06:43:05;12.00;99.90
20815;DHT22;10568;48.176;16.316;2024-03-22T06:45:31;12.10;99.90
20815;DHT22;10568;48.176;16.316;2024-03-22T06:47:58;12.10;99.90
20815;DHT22;10568;48.176;16.316;2024-03-22T06:50:24;12.10;99.90
20815;DHT22;10568;48.176;16.316;2024-03-22T06:52:54;12.20;99.90
20815;DHT22;10568;48.176;16.316;2024-03-22T06:55:20;12.40;99.90
20815;DHT22;10568;48.176;16.316;2024-03-22T06:57:48;12.50;99.90
20815;DHT22;10568;48.176;16.316;2024-03-22T07:00:15;12.50;99.90
20815;DHT22;10568;48.176;16.316;2024-03-22T07:02:42;12.60;99.90
20815;DHT22;10568;48.176;16.316;2024-03-22T07:05:09;12.70;99.90
20815;DHT22;10568;48.176;16.316;2024-03-22T07:07:36;12.00;99.90
20815;DHT22;10568;48.176;16.316;2024-03-22T07:10:02;12.90;99.90
20815;DHT22;10568;48.176;16.316;2024-03-22T07:12:29;13.00;99.90
20815;DHT22;10568;48.176;16.316;2024-03-22T07:14:55;13.10;99.90
20815;DHT22;10568;48.176;16.316;2024-03-22T07:17:22;13.10;99.90
20815;DHT22;10568;48.176;16.316;2024-03-22T07:19:51;13.20;99.90
20815;DHT22;10568;48.176;16.316;2024-03-22T07:22:18;13.30;99.90
20815;DHT22;10568;48.176;16.316;2024-03-22T07:24:44;13.30;99.90
20815;DHT22;10568;48.176;16.316;2024-03-22T07:27:11;13.20;99.90
20815;DHT22;10568;48.176;16.316;2024-03-22T07:29:37;12.40;99.90
20815;DHT22;10568;48.176;16.316;2024-03-22T07:32:04;13.40;99.90
20815;DHT22;10568;48.176;16.316;2024-03-22T07:34:30;13.40;99.90
20815;DHT22;10568;48.176;16.316;2024-03-22T07:36:56;13.50;99.90
20815;DHT22;10568;48.176;16.316;2024-03-22T07:39:22;13.50;99.90
20815;DHT22;10568;48.176;16.316;2024-03-22T07:41:49;13.30;99.90
20815;DHT22;10568;48.176;16.316;2024-03-22T07:44:16;13.50;99.90
20815;DHT22;10568;48.176;16.316;2024-03-22T07:46:50;13.60;99.90
20815;DHT22;10568;48.176;16.316;2024-03-22T07:49:17;13.60;99.90
20815;DHT22;10568;48.176;16.316;2024-03-22T07:51:43;13.70;99.90
20815;DHT22;10568;48.176;16.316;2024-03-22T07:54:09;13.80;99.90
20815;DHT22;10568;48.176;16.316;2024-03-22T07:56:35;13.70;99.90
20815;DHT22;10568;48.176;16.316;2024-03-22T07:59:01;13.60;99.90
20815;DHT22;10568;48.176;16.316;2024-03-22T08:01:27;13.70;99.90
20815;DHT22;10568;48.176;16.316;2024-03-22T08:03:53;13.70;99.90
20815;DHT22;10568;48.176;16.316;2024-03-22T08:06:19;13.60;99.90
20815;DHT22;10568;48.176;16.316;2024-03-22T08:08:45;13.70;99.90
20815;DHT22;10568;48.176;16.316;2024-03-22T08:11:11;13.80;99.90
20815;DHT22;10568;48.176;16.316;2024-03-22T08:13:37;13.80;99.90
20815;DHT22;10568;48.176;16.316;2024-03-22T08:16:04;13.90;99.90
20815;DHT22;10568;48.176;16.316;2024-03-22T08:18:32;13.90;99.90
20815;DHT22;10568;48.176;16.316;2024-03-22T08:20:59;14.00;99.90
20815;DHT22;10568;48.176;16.316;2024-03-22T08:23:25;14.00;99.90
20815;DHT22;10568;48.176;16.316;2024-03-22T08:25:51;14.10;99.90
20815;DHT22;10568;48.176;16.316;2024-03-22T08:28:17;14.10;99.90
20815;DHT22;10568;48.176;16.316;2024-03-22T08:30:43;14.30;99.90
20815;DHT22;10568;48.176;16.316;2024-03-22T08:33:10;14.40;99.90
20815;DHT22;10568;48.176;16.316;2024-03-22T08:35:37;14.50;99.90
20815;DHT22;10568;48.176;16.316;2024-03-22T08:38:03;14.60;99.90
20815;DHT22;10568;48.176;16.316;2024-03-22T08:40:30;14.80;99.90
20815;DHT22;10568;48.176;16.316;2024-03-22T08:42:56;14.80;99.90
20815;DHT22;10568;48.176;16.316;2024-03-22T08:45:22;13.70;99.90
20815;DHT22;10568;48.176;16.316;2024-03-22T08:47:48;15.20;99.90
20815;DHT22;10568;48.176;16.316;2024-03-22T08:50:14;15.70;99.90
20815;DHT22;10568;48.176;16.316;2024-03-22T08:52:40;15.40;99.90
20815;DHT22;10568;48.176;16.316;2024-03-22T08:55:06;15.50;99.90
20815;DHT22;10568;48.176;16.316;2024-03-22T08:57:33;15.50;99.90
20815;DHT22;10568;48.176;16.316;2024-03-22T08:59:59;15.60;99.90
20815;DHT22;10568;48.176;16.316;2024-03-22T09:02:25;15.60;99.90
20815;DHT22;10568;48.176;16.316;2024-03-22T09:04:52;15.60;99.90
20815;DHT22;10568;48.176;16.316;2024-03-22T09:07:20;15.70;99.90
20815;DHT22;10568;48.176;16.316;2024-03-22T09:09:48;15.50;99.90
20815;DHT22;10568;48.176;16.316;2024-03-22T09:12:14;15.60;99.90
20815;DHT22;10568;48.176;16.316;2024-03-22T09:14:41;15.50;99.90
20815;DHT22;10568;48.176;16.316;2024-03-22T09:17:07;15.30;99.90
20815;DHT22;10568;48.176;16.316;2024-03-22T09:19:33;15.40;99.90
20815;DHT22;10568;48.176;16.316;2024-03-22T09:21:59;15.50;99.90
20815;DHT22;10568;48.176;16.316;2024-03-22T09:24:25;15.50;99.90
20815;DHT22;10568;48.176;16.316;2024-03-22T09:26:51;15.60;99.90
20815;DHT22;10568;48.176;16.316;2024-03-22T09:29:19;15.80;99.90
20815;DHT22;10568;48.176;16.316;2024-03-22T09:31:45;15.20;99.90
20815;DHT22;10568;48.176;16.316;2024-03-22T09:34:12;15.90;99.90
20815;DHT22;10568;48.176;16.316;2024-03-22T09:36:38;16.00;99.90
20815;DHT22;10568;48.176;16.316;2024-03-22T09:39:05;16.00;99.90
20815;DHT22;10568;48.176;16.316;2024-03-22T09:41:32;16.00;99.90
20815;DHT22;10568;48.176;16.316;2024-03-22T09:43:59;16.10;99.90
20815;DHT22;10568;48.176;16.316;2024-03-22T09:46:28;16.30;99.90
20815;DHT22;10568;48.176;16.316;2024-03-22T09:48:56;16.40;99.90
20815;DHT22;10568;48.176;16.316;2024-03-22T09:51:24;16.40;99.90
20815;DHT22;10568;48.176;16.316;2024-03-22T09:53:52;16.40;99.90
20815;DHT22;10568;48.176;16.316;2024-03-22T09:56:21;16.50;99.90
20815;DHT22;10568;48.176;16.316;2024-03-22T09:58:49;16.40;99.90
20815;DHT22;10568;48.176;16.316;2024-03-22T10:01:17;16.70;99.90
20815;DHT22;10568;48.176;16.316;2024-03-22T10:03:44;16.70;99.90
20815;DHT22;10568;48.176;16.316;2024-03-22T10:06:11;16.70;99.90
20815;DHT22;10568;48.176;16.316;2024-03-22T10:08:38;16.90;99.90
20815;DHT22;10568;48.176;16.316;2024-03-22T10:11:04;17.10;99.90
20815;DHT22;10568;48.176;16.316;2024-03-22T10:13:31;17.00;99.90
20815;DHT22;10568;48.176;16.316;2024-03-22T10:15:57;17.10;99.90
20815;DHT22;10568;48.176;16.316;2024-03-22T10:18:24;16.30;99.90
20815;DHT22;10568;48.176;16.316;2024-03-22T10:21:04;17.00;99.90
20815;DHT22;10568;48.176;16.316;2024-03-22T10:23:31;17.00;99.90
20815;DHT22;10568;48.176;16.316;2024-03-22T10:25:58;17.20;99.90
20815;DHT22;10568;48.176;16.316;2024-03-22T10:28:28;17.20;99.90
20815;DHT22;10568;48.176;16.316;2024-03-22T10:30:54;17.30;99.90
20815;DHT22;10568;48.176;16.316;2024-03-22T10:33:21;17.30;99.90
20815;DHT22;10568;48.176;16.316;2024-03-22T10:35:53;17.50;99.90
20815;DHT22;10568;48.176;16.316;2024-03-22T10:38:20;17.50;99.90
20815;DHT22;10568;48.176;16.316;2024-03-22T10:40:48;17.50;99.90
20815;DHT22;10568;48.176;16.316;2024-03-22T10:46:48;17.40;99.90
20815;DHT22;10568;48.176;16.316;2024-03-22T10:49:24;17.50;99.90
20815;DHT22;10568;48.176;16.316;2024-03-22T10:51:59;17.50;99.90
20815;DHT22;10568;48.176;16.316;2024-03-22T10:54:36;17.60;99.90
20815;DHT22;10568;48.176;16.316;2024-03-22T10:57:06;17.80;99.90
20815;DHT22;10568;48.176;16.316;2024-03-22T10:59:34;17.60;99.90
20815;DHT22;10568;48.176;16.316;2024-03-22T11:02:04;17.60;99.90
20815;DHT22;10568;48.176;16.316;2024-03-22T11:04:33;17.60;99.90
20815;DHT22;10568;48.176;16.316;2024-03-22T11:06:59;17.70;99.90
20815;DHT22;10568;48.176;16.316;2024-03-22T11:09:26;17.80;99.90
20815;DHT22;10568;48.176;16.316;2024-03-22T11:11:55;17.70;99.90
20815;DHT22;10568;48.176;16.316;2024-03-22T11:14:22;17.90;99.90
20815;DHT22;10568;48.176;16.316;2024-03-22T11:16:51;18.10;99.90
20815;DHT22;10568;48.176;16.316;2024-03-22T11:19:18;18.30;99.90
20815;DHT22;10568;48.176;16.316;2024-03-22T11:21:45;18.40;99.90
20815;DHT22;10568;48.176;16.316;2024-03-22T11:24:11;18.50;99.90
20815;DHT22;10568;48.176;16.316;2024-03-22T11:26:37;18.40;99.90
20815;DHT22;10568;48.176;16.316;2024-03-22T11:29:03;18.50;99.90
20815;DHT22;10568;48.176;16.316;2024-03-22T11:31:29;18.60;99.90
20815;DHT22;10568;48.176;16.316;2024-03-22T11:33:56;18.50;99.90
20815;DHT22;10568;48.176;16.316;2024-03-22T11:36:23;18.50;99.90
20815;DHT22;10568;48.176;16.316;2024-03-22T11:38:49;18.50;99.90
20815;DHT22;10568;48.176;16.316;2024-03-22T11:41:28;18.60;99.90
20815;DHT22;10568;48.176;16.316;2024-03-22T11:43:56;18.70;99.90
20815;DHT22;10568;48.176;16.316;2024-03-22T11:46:24;18.90;99.90
20815;DHT22;10568;48.176;16.316;2024-03-22T11:48:53;18.70;99.90
20815;DHT22;10568;48.176;16.316;2024-03-22T11:51:19;18.80;99.90
20815;DHT22;10568;48.176;16.316;2024-03-22T11:53:52;19.10;99.90
20815;DHT22;10568;48.176;16.316;2024-03-22T11:56:22;19.10;99.90
20815;DHT22;10568;48.176;16.316;2024-03-22T11:58:49;19.20;99.90
20815;DHT22;10568;48.176;16.316;2024-03-22T12:01:15;19.80;99.90
20815;DHT22;10568;48.176;16.316;2024-03-22T12:03:44;19.60;99.90
20815;DHT22;10568;48.176;16.316;2024-03-22T12:06:11;20.00;99.90
20815;DHT22;10568;48.176;16.316;2024-03-22T12:08:38;20.10;99.90
20815;DHT22;10568;48.176;16.316;2024-03-22T12:11:13;20.10;99.50
20815;DHT22;10568;48.176;16.316;2024-03-22T12:13:40;20.40;99.20
20815;DHT22;10568;48.176;16.316;2024-03-22T12:16:06;20.40;99.90
20815;DHT22;10568;48.176;16.316;2024-03-22T12:18:36;20.90;99.20
20815;DHT22;10568;48.176;16.316;2024-03-22T12:21:02;21.00;97.60
20815;DHT22;10568;48.176;16.316;2024-03-22T12:23:28;20.70;98.20
20815;DHT22;10568;48.176;16.316;2024-03-22T12:25:54;20.80;97.20
20815;DHT22;10568;48.176;16.316;2024-03-22T12:28:22;20.90;98.10
20815;DHT22;10568;48.176;16.316;2024-03-22T12:30:50;21.20;98.80
20815;DHT22;10568;48.176;16.316;2024-03-22T12:33:16;21.30;96.90
20815;DHT22;10568;48.176;16.316;2024-03-22T12:35:43;21.10;96.90
20815;DHT22;10568;48.176;16.316;2024-03-22T12:38:09;21.30;97.70
20815;DHT22;10568;48.176;16.316;2024-03-22T12:40:38;21.10;95.50
20815;DHT22;10568;48.176;16.316;2024-03-22T12:43:04;20.80;96.20
20815;DHT22;10568;48.176;16.316;2024-03-22T12:45:31;20.80;95.80
20815;DHT22;10568;48.176;16.316;2024-03-22T12:47:58;20.40;96.30
20815;DHT22;10568;48.176;16.316;2024-03-22T12:50:26;20.20;95.50
20815;DHT22;10568;48.176;16.316;2024-03-22T12:52:52;20.10;97.30
20815;DHT22;10568;48.176;16.316;2024-03-22T12:55:18;20.00;96.70
20815;DHT22;10568;48.176;16.316;2024-03-22T12:57:45;20.00;96.60
20815;DHT22;10568;48.176;16.316;2024-03-22T13:00:12;19.80;95.30
20815;DHT22;10568;48.176;16.316;2024-03-22T13:02:42;19.50;96.30
20815;DHT22;10568;48.176;16.316;2024-03-22T13:05:08;19.70;95.90
20815;DHT22;10568;48.176;16.316;2024-03-22T13:07:34;19.70;97.40
20815;DHT22;10568;48.176;16.316;2024-03-22T13:10:01;19.60;97.50
20815;DHT22;10568;48.176;16.316;2024-03-22T13:12:28;19.40;96.40
20815;DHT22;10568;48.176;16.316;2024-03-22T13:14:57;19.20;98.70
20815;DHT22;10568;48.176;16.316;2024-03-22T13:17:24;19.40;96.40
20815;DHT22;10568;48.176;16.316;2024-03-22T13:19:50;19.20;96.80
20815;DHT22;10568;48.176;16.316;2024-03-22T13:22:16;19.30;96.00
20815;DHT22;10568;48.176;16.316;2024-03-22T13:24:45;19.40;98.10
20815;DHT22;10568;48.176;16.316;2024-03-22T13:27:11;19.40;95.90
20815;DHT22;10568;48.176;16.316;2024-03-22T13:29:41;19.40;97.20
20815;DHT22;10568;48.176;16.316;2024-03-22T13:32:11;19.50;96.00
20815;DHT22;10568;48.176;16.316;2024-03-22T13:34:37;19.20;96.10
20815;DHT22;10568;48.176;16.316;2024-03-22T13:37:03;19.20;96.80
20815;DHT22;10568;48.176;16.316;2024-03-22T13:39:29;19.20;96.20
20815;DHT22;10568;48.176;16.316;2024-03-22T13:41:56;19.10;96.60
20815;DHT22;10568;48.176;16.316;2024-03-22T13:44:23;19.10;94.80
20815;DHT22;10568;48.176;16.316;2024-03-22T13:46:51;19.00;94.60
20815;DHT22;10568;48.176;16.316;2024-03-22T13:49:19;19.00;95.70
20815;DHT22;10568;48.176;16.316;2024-03-22T13:51:49;18.90;95.20
20815;DHT22;10568;48.176;16.316;2024-03-22T13:54:16;19.00;94.80
20815;DHT22;10568;48.176;16.316;2024-03-22T13:56:42;18.90;94.50
20815;DHT22;10568;48.176;16.316;2024-03-22T13:59:09;18.90;94.60
20815;DHT22;10568;48.176;16.316;2024-03-22T14:01:36;19.00;95.40
20815;DHT22;10568;48.176;16.316;2024-03-22T14:04:05;19.00;94.90
20815;DHT22;10568;48.176;16.316;2024-03-22T14:06:32;19.10;95.10
20815;DHT22;10568;48.176;16.316;2024-03-22T14:08:58;19.00;95.00
20815;DHT22;10568;48.176;16.316;2024-03-22T14:11:28;18.90;94.20
20815;DHT22;10568;48.176;16.316;2024-03-22T14:13:57;18.90;94.70
20815;DHT22;10568;48.176;16.316;2024-03-22T14:16:23;18.60;94.60
20815;DHT22;10568;48.176;16.316;2024-03-22T14:18:49;18.70;94.20
20815;DHT22;10568;48.176;16.316;2024-03-22T14:21:17;18.60;94.10
20815;DHT22;10568;48.176;16.316;2024-03-22T14:23:49;18.50;95.20
20815;DHT22;10568;48.176;16.316;2024-03-22T14:26:16;18.60;96.10
20815;DHT22;10568;48.176;16.316;2024-03-22T14:28:43;18.60;94.40
20815;DHT22;10568;48.176;16.316;2024-03-22T14:31:10;18.50;95.10
20815;DHT22;10568;48.176;16.316;2024-03-22T14:33:39;18.50;94.60
20815;DHT22;10568;48.176;16.316;2024-03-22T14:36:07;18.50;93.40
20815;DHT22;10568;48.176;16.316;2024-03-22T14:38:33;18.50;93.60
20815;DHT22;10568;48.176;16.316;2024-03-22T14:40:59;18.50;95.60
20815;DHT22;10568;48.176;16.316;2024-03-22T14:43:26;18.40;93.80
20815;DHT22;10568;48.176;16.316;2024-03-22T14:49:10;18.20;94.10
20815;DHT22;10568;48.176;16.316;2024-03-22T14:51:36;18.20;94.20
20815;DHT22;10568;48.176;16.316;2024-03-22T14:54:02;18.10;96.10
20815;DHT22;10568;48.176;16.316;2024-03-22T14:56:30;18.10;93.10
20815;DHT22;10568;48.176;16.316;2024-03-22T14:58:56;18.10;93.90
20815;DHT22;10568;48.176;16.316;2024-03-22T15:01:23;18.20;93.20
20815;DHT22;10568;48.176;16.316;2024-03-22T15:03:49;18.10;95.30
20815;DHT22;10568;48.176;16.316;2024-03-22T15:06:15;18.20;95.50
20815;DHT22;10568;48.176;16.316;2024-03-22T15:08:41;18.10;94.20
20815;DHT22;10568;48.176;16.316;2024-03-22T15:11:08;18.10;93.80
20815;DHT22;10568;48.176;16.316;2024-03-22T15:13:34;18.00;94.80
20815;DHT22;10568;48.176;16.316;2024-03-22T15:16:00;18.00;95.10
20815;DHT22;10568;48.176;16.316;2024-03-22T15:18:26;18.00;93.60
20815;DHT22;10568;48.176;16.316;2024-03-22T15:20:54;17.90;94.10